sensor_id;sensor_type;location;lat;lon;timestamp;P1;durP1;ratioP1;P2;durP2;ratioP2
47912;SDS011;33676;51.006;17.180;2023-02-08T00:01:26;24.40;;;16.60;;
47912;SDS011;33676;51.006;17.180;2023-02-08T00:03:55;25.90;;;18.50;;
47912;SDS011;33676;51.006;17.180;2023-02-08T00:06:23;28.50;;;17.10;;
47912;SDS011;33676;51.006;17.180;2023-02-08T00:08:52;26.80;;;18.90;;
47912;SDS011;33676;51.006;17.180;2023-02-08T00:11:20;24.50;;;17.60;;
47912;SDS011;33676;51.006;17.180;2023-02-08T00:13:49;26.10;;;18.20;;
47912;SDS011;33676;51.006;17.180;2023-02-08T00:16:17;20.20;;;15.50;;
47912;SDS011;33676;51.006;17.180;2023-02-08T00:18:46;16.60;;;13.00;;
47912;SDS011;33676;51.006;17.180;2023-02-08T00:21:16;18.50;;;12.90;;
47912;SDS011;33676;51.006;17.180;2023-02-08T00:23:45;17.10;;;13.10;;
47912;SDS011;33676;51.006;17.180;2023-02-08T00:26:14;15.70;;;12.90;;
47912;SDS011;33676;51.006;17.180;2023-02-08T00:28:43;12.00;;;9.90;;
47912;SDS011;33676;51.006;17.180;2023-02-08T00:31:12;15.10;;;11.00;;
47912;SDS011;33676;51.006;17.180;2023-02-08T00:33:41;13.80;;;9.80;;
47912;SDS011;33676;51.006;17.180;2023-02-08T00:36:10;14.10;;;9.70;;
47912;SDS011;33676;51.006;17.180;2023-02-08T00:38:39;11.50;;;8.60;;
47912;SDS011;33676;51.006;17.180;2023-02-08T00:41:08;12.80;;;9.90;;
47912;SDS011;33676;51.006;17.180;2023-02-08T00:43:37;19.20;;;13.20;;
47912;SDS011;33676;51.006;17.180;2023-02-08T00:46:05;17.40;;;11.00;;
47912;SDS011;33676;51.006;17.180;2023-02-08T00:48:35;19.20;;;11.80;;
47912;SDS011;33676;51.006;17.180;2023-02-08T00:51:06;14.50;;;11.30;;
47912;SDS011;33676;51.006;17.180;2023-02-08T00:53:38;10.90;;;8.60;;
47912;SDS011;33676;51.006;17.180;2023-02-08T00:56:09;14.00;;;10.50;;
47912;SDS011;33676;51.006;17.180;2023-02-08T00:58:39;12.00;;;9.10;;
47912;SDS011;33676;51.006;17.180;2023-02-08T01:01:08;15.90;;;12.00;;
47912;SDS011;33676;51.006;17.180;2023-02-08T01:03:38;15.40;;;10.70;;
47912;SDS011;33676;51.006;17.180;2023-02-08T01:06:11;15.00;;;10.40;;
47912;SDS011;33676;51.006;17.180;2023-02-08T01:08:42;13.30;;;10.10;;
47912;SDS011;33676;51.006;17.180;2023-02-08T01:11:12;13.40;;;9.20;;
47912;SDS011;33676;51.006;17.180;2023-02-08T01:13:44;14.10;;;8.90;;
47912;SDS011;33676;51.006;17.180;2023-02-08T01:16:21;15.80;;;9.80;;
47912;SDS011;33676;51.006;17.180;2023-02-08T01:18:52;15.20;;;10.90;;
47912;SDS011;33676;51.006;17.180;2023-02-08T01:21:25;14.30;;;11.90;;
47912;SDS011;33676;51.006;17.180;2023-02-08T01:23:55;13.70;;;9.50;;
47912;SDS011;33676;51.006;17.180;2023-02-08T01:26:24;14.60;;;10.40;;
47912;SDS011;33676;51.006;17.180;2023-02-08T01:28:54;13.80;;;9.90;;
47912;SDS011;33676;51.006;17.180;2023-02-08T01:31:30;12.60;;;9.90;;
47912;SDS011;33676;51.006;17.180;2023-02-08T01:34:02;12.10;;;8.80;;
47912;SDS011;33676;51.006;17.180;2023-02-08T01:36:32;11.20;;;8.30;;
47912;SDS011;33676;51.006;17.180;2023-02-08T01:39:01;12.10;;;8.70;;
47912;SDS011;33676;51.006;17.180;2023-02-08T01:41:34;11.70;;;9.80;;
47912;SDS011;33676;51.006;17.180;2023-02-08T01:46:38;14.60;;;10.00;;
47912;SDS011;33676;51.006;17.180;2023-02-08T01:49:28;14.10;;;10.20;;
47912;SDS011;33676;51.006;17.180;2023-02-08T01:52:06;11.80;;;9.60;;
47912;SDS011;33676;51.006;17.180;2023-02-08T01:54:55;14.40;;;8.80;;
47912;SDS011;33676;51.006;17.180;2023-02-08T01:57:27;13.70;;;9.10;;
47912;SDS011;33676;51.006;17.180;2023-02-08T02:00:07;14.40;;;9.70;;
47912;SDS011;33676;51.006;17.180;2023-02-08T02:02:41;14.80;;;8.90;;
47912;SDS011;33676;51.006;17.180;2023-02-08T02:05:12;16.10;;;12.00;;
47912;SDS011;33676;51.006;17.180;2023-02-08T02:07:44;15.40;;;10.90;;
47912;SDS011;33676;51.006;17.180;2023-02-08T02:10:15;17.60;;;12.30;;
47912;SDS011;33676;51.006;17.180;2023-02-08T02:12:49;15.70;;;12.20;;
47912;SDS011;33676;51.006;17.180;2023-02-08T02:15:18;18.20;;;12.30;;
47912;SDS011;33676;51.006;17.180;2023-02-08T02:17:46;20.90;;;12.70;;
47912;SDS011;33676;51.006;17.180;2023-02-08T02:20:41;18.10;;;12.20;;
47912;SDS011;33676;51.006;17.180;2023-02-08T02:29:31;16.90;;;13.30;;
47912;SDS011;33676;51.006;17.180;2023-02-08T02:32:30;19.60;;;11.80;;
47912;SDS011;33676;51.006;17.180;2023-02-08T02:40:24;16.50;;;11.90;;
47912;SDS011;33676;51.006;17.180;2023-02-08T02:43:06;17.20;;;12.50;;
47912;SDS011;33676;51.006;17.180;2023-02-08T02:49:23;19.30;;;12.30;;
47912;SDS011;33676;51.006;17.180;2023-02-08T02:52:05;15.40;;;12.90;;
47912;SDS011;33676;51.006;17.180;2023-02-08T02:55:00;15.60;;;11.50;;
47912;SDS011;33676;51.006;17.180;2023-02-08T02:57:34;16.60;;;11.60;;
47912;SDS011;33676;51.006;17.180;2023-02-08T03:00:08;17.60;;;11.10;;
47912;SDS011;33676;51.006;17.180;2023-02-08T03:02:39;17.60;;;12.60;;
47912;SDS011;33676;51.006;17.180;2023-02-08T03:05:08;17.60;;;12.00;;
47912;SDS011;33676;51.006;17.180;2023-02-08T03:07:46;16.30;;;11.70;;
47912;SDS011;33676;51.006;17.180;2023-02-08T03:13:35;16.60;;;11.80;;
47912;SDS011;33676;51.006;17.180;2023-02-08T03:16:15;17.70;;;10.10;;
47912;SDS011;33676;51.006;17.180;2023-02-08T03:22:00;15.10;;;10.50;;
47912;SDS011;33676;51.006;17.180;2023-02-08T03:24:54;15.50;;;10.70;;
47912;SDS011;33676;51.006;17.180;2023-02-08T03:27:35;19.30;;;11.00;;
47912;SDS011;33676;51.006;17.180;2023-02-08T03:30:31;17.50;;;10.70;;
47912;SDS011;33676;51.006;17.180;2023-02-08T03:33:19;16.00;;;10.20;;
47912;SDS011;33676;51.006;17.180;2023-02-08T03:35:59;15.70;;;12.20;;
47912;SDS011;33676;51.006;17.180;2023-02-08T03:38:46;14.70;;;11.00;;
47912;SDS011;33676;51.006;17.180;2023-02-08T03:41:21;15.00;;;11.00;;
47912;SDS011;33676;51.006;17.180;2023-02-08T03:43:57;14.60;;;11.90;;
47912;SDS011;33676;51.006;17.180;2023-02-08T03:46:35;17.00;;;12.10;;
47912;SDS011;33676;51.006;17.180;2023-02-08T03:49:08;16.80;;;11.70;;
47912;SDS011;33676;51.006;17.180;2023-02-08T03:51:42;17.20;;;12.00;;
47912;SDS011;33676;51.006;17.180;2023-02-08T03:54:20;17.20;;;11.90;;
47912;SDS011;33676;51.006;17.180;2023-02-08T03:59:42;19.10;;;12.00;;
47912;SDS011;33676;51.006;17.180;2023-02-08T04:02:17;14.30;;;11.00;;
47912;SDS011;33676;51.006;17.180;2023-02-08T04:04:48;17.00;;;12.90;;
47912;SDS011;33676;51.006;17.180;2023-02-08T04:07:18;19.00;;;12.50;;
47912;SDS011;33676;51.006;17.180;2023-02-08T04:09:47;17.80;;;10.40;;
47912;SDS011;33676;51.006;17.180;2023-02-08T04:12:16;17.00;;;11.50;;
47912;SDS011;33676;51.006;17.180;2023-02-08T04:14:44;16.80;;;11.70;;
47912;SDS011;33676;51.006;17.180;2023-02-08T04:17:13;14.90;;;12.30;;
47912;SDS011;33676;51.006;17.180;2023-02-08T04:19:41;17.50;;;12.40;;
47912;SDS011;33676;51.006;17.180;2023-02-08T04:22:10;17.00;;;11.60;;
47912;SDS011;33676;51.006;17.180;2023-02-08T04:24:39;19.60;;;13.90;;
47912;SDS011;33676;51.006;17.180;2023-02-08T04:27:08;17.50;;;12.40;;
47912;SDS011;33676;51.006;17.180;2023-02-08T04:29:36;17.70;;;12.00;;
47912;SDS011;33676;51.006;17.180;2023-02-08T04:32:05;18.00;;;12.00;;
47912;SDS011;33676;51.006;17.180;2023-02-08T04:34:39;17.80;;;12.80;;
47912;SDS011;33676;51.006;17.180;2023-02-08T04:37:08;16.50;;;12.10;;
47912;SDS011;33676;51.006;17.180;2023-02-08T04:39:37;17.80;;;13.40;;
47912;SDS011;33676;51.006;17.180;2023-02-08T04:42:05;20.90;;;14.00;;
47912;SDS011;33676;51.006;17.180;2023-02-08T04:44:34;23.30;;;15.30;;
47912;SDS011;33676;51.006;17.180;2023-02-08T04:47:02;21.10;;;14.20;;
47912;SDS011;33676;51.006;17.180;2023-02-08T04:49:31;21.50;;;14.40;;
47912;SDS011;33676;51.006;17.180;2023-02-08T04:51:59;24.50;;;14.70;;
47912;SDS011;33676;51.006;17.180;2023-02-08T04:54:28;19.60;;;14.90;;
47912;SDS011;33676;51.006;17.180;2023-02-08T04:56:56;20.90;;;14.40;;
47912;SDS011;33676;51.006;17.180;2023-02-08T04:59:25;22.50;;;14.90;;
47912;SDS011;33676;51.006;17.180;2023-02-08T05:01:53;19.20;;;14.80;;
47912;SDS011;33676;51.006;17.180;2023-02-08T05:04:22;20.30;;;13.70;;
47912;SDS011;33676;51.006;17.180;2023-02-08T05:06:50;21.90;;;15.30;;
47912;SDS011;33676;51.006;17.180;2023-02-08T05:09:19;19.60;;;14.50;;
47912;SDS011;33676;51.006;17.180;2023-02-08T05:11:47;22.00;;;14.30;;
47912;SDS011;33676;51.006;17.180;2023-02-08T05:14:16;20.60;;;16.10;;
47912;SDS011;33676;51.006;17.180;2023-02-08T05:16:44;22.30;;;15.10;;
47912;SDS011;33676;51.006;17.180;2023-02-08T05:19:13;19.70;;;14.10;;
47912;SDS011;33676;51.006;17.180;2023-02-08T05:21:41;19.60;;;15.40;;
47912;SDS011;33676;51.006;17.180;2023-02-08T05:24:10;22.50;;;16.40;;
47912;SDS011;33676;51.006;17.180;2023-02-08T05:26:40;23.40;;;15.20;;
47912;SDS011;33676;51.006;17.180;2023-02-08T05:29:08;23.70;;;16.60;;
47912;SDS011;33676;51.006;17.180;2023-02-08T05:31:41;21.90;;;15.00;;
47912;SDS011;33676;51.006;17.180;2023-02-08T05:34:09;20.70;;;14.50;;
47912;SDS011;33676;51.006;17.180;2023-02-08T05:36:39;24.80;;;15.40;;
47912;SDS011;33676;51.006;17.180;2023-02-08T05:39:08;21.60;;;15.00;;
47912;SDS011;33676;51.006;17.180;2023-02-08T05:41:36;20.20;;;15.40;;
47912;SDS011;33676;51.006;17.180;2023-02-08T05:44:05;24.50;;;14.20;;
47912;SDS011;33676;51.006;17.180;2023-02-08T05:46:37;22.40;;;16.20;;
47912;SDS011;33676;51.006;17.180;2023-02-08T05:49:15;27.60;;;18.10;;
47912;SDS011;33676;51.006;17.180;2023-02-08T05:51:51;33.80;;;16.40;;
47912;SDS011;33676;51.006;17.180;2023-02-08T05:54:20;25.30;;;18.10;;
47912;SDS011;33676;51.006;17.180;2023-02-08T05:56:55;25.90;;;15.50;;
47912;SDS011;33676;51.006;17.180;2023-02-08T05:59:28;27.40;;;17.70;;
47912;SDS011;33676;51.006;17.180;2023-02-08T06:02:02;26.10;;;16.60;;
47912;SDS011;33676;51.006;17.180;2023-02-08T06:04:36;25.30;;;17.20;;
47912;SDS011;33676;51.006;17.180;2023-02-08T06:07:06;24.60;;;16.10;;
47912;SDS011;33676;51.006;17.180;2023-02-08T06:09:43;25.20;;;16.60;;
47912;SDS011;33676;51.006;17.180;2023-02-08T06:12:15;26.00;;;17.10;;
47912;SDS011;33676;51.006;17.180;2023-02-08T06:14:44;23.00;;;16.00;;
47912;SDS011;33676;51.006;17.180;2023-02-08T06:17:12;25.90;;;16.10;;
47912;SDS011;33676;51.006;17.180;2023-02-08T06:19:44;23.70;;;16.10;;
47912;SDS011;33676;51.006;17.180;2023-02-08T06:22:13;24.00;;;17.70;;
47912;SDS011;33676;51.006;17.180;2023-02-08T06:24:45;17.20;;;14.40;;
47912;SDS011;33676;51.006;17.180;2023-02-08T06:27:18;26.00;;;15.60;;
47912;SDS011;33676;51.006;17.180;2023-02-08T06:29:54;28.80;;;15.60;;
47912;SDS011;33676;51.006;17.180;2023-02-08T06:32:25;27.90;;;16.90;;
47912;SDS011;33676;51.006;17.180;2023-02-08T06:34:56;25.10;;;16.60;;
47912;SDS011;33676;51.006;17.180;2023-02-08T06:37:28;27.50;;;16.00;;
47912;SDS011;33676;51.006;17.180;2023-02-08T06:40:04;48.70;;;18.50;;
47912;SDS011;33676;51.006;17.180;2023-02-08T06:42:35;38.50;;;18.80;;
47912;SDS011;33676;51.006;17.180;2023-02-08T06:45:11;37.10;;;16.80;;
47912;SDS011;33676;51.006;17.180;2023-02-08T06:47:43;43.60;;;18.40;;
47912;SDS011;33676;51.006;17.180;2023-02-08T06:50:12;37.60;;;19.40;;
47912;SDS011;33676;51.006;17.180;2023-02-08T06:52:42;28.00;;;16.80;;
47912;SDS011;33676;51.006;17.180;2023-02-08T06:55:11;27.80;;;17.90;;
47912;SDS011;33676;51.006;17.180;2023-02-08T06:57:40;29.70;;;18.50;;
47912;SDS011;33676;51.006;17.180;2023-02-08T07:00:12;38.40;;;20.10;;
47912;SDS011;33676;51.006;17.180;2023-02-08T07:02:44;35.10;;;19.80;;
47912;SDS011;33676;51.006;17.180;2023-02-08T07:05:42;28.20;;;21.40;;
47912;SDS011;33676;51.006;17.180;2023-02-08T07:08:32;35.60;;;21.60;;
47912;SDS011;33676;51.006;17.180;2023-02-08T07:11:06;37.60;;;21.90;;
47912;SDS011;33676;51.006;17.180;2023-02-08T07:13:36;34.70;;;23.20;;
47912;SDS011;33676;51.006;17.180;2023-02-08T07:16:07;42.20;;;24.10;;
47912;SDS011;33676;51.006;17.180;2023-02-08T07:18:37;36.20;;;20.70;;
47912;SDS011;33676;51.006;17.180;2023-02-08T07:21:05;35.40;;;23.80;;
47912;SDS011;33676;51.006;17.180;2023-02-08T07:23:34;35.90;;;22.60;;
47912;SDS011;33676;51.006;17.180;2023-02-08T07:26:10;35.40;;;23.80;;
47912;SDS011;33676;51.006;17.180;2023-02-08T07:28:40;42.70;;;26.80;;
47912;SDS011;33676;51.006;17.180;2023-02-08T07:31:11;36.60;;;23.70;;
47912;SDS011;33676;51.006;17.180;2023-02-08T07:33:42;39.70;;;23.30;;
47912;SDS011;33676;51.006;17.180;2023-02-08T07:36:12;38.80;;;23.30;;
47912;SDS011;33676;51.006;17.180;2023-02-08T07:38:40;38.50;;;24.30;;
47912;SDS011;33676;51.006;17.180;2023-02-08T07:41:11;35.60;;;22.70;;
47912;SDS011;33676;51.006;17.180;2023-02-08T07:43:41;34.80;;;23.60;;
47912;SDS011;33676;51.006;17.180;2023-02-08T07:46:15;41.40;;;23.40;;
47912;SDS011;33676;51.006;17.180;2023-02-08T07:48:48;37.60;;;22.40;;
47912;SDS011;33676;51.006;17.180;2023-02-08T07:51:17;36.80;;;23.00;;
47912;SDS011;33676;51.006;17.180;2023-02-08T07:53:46;39.70;;;24.70;;
47912;SDS011;33676;51.006;17.180;2023-02-08T07:56:14;32.60;;;23.20;;
47912;SDS011;33676;51.006;17.180;2023-02-08T07:58:43;44.90;;;26.50;;
47912;SDS011;33676;51.006;17.180;2023-02-08T08:01:12;40.80;;;26.30;;
47912;SDS011;33676;51.006;17.180;2023-02-08T08:03:50;36.10;;;24.20;;
47912;SDS011;33676;51.006;17.180;2023-02-08T08:06:20;36.90;;;24.10;;
47912;SDS011;33676;51.006;17.180;2023-02-08T08:08:50;37.30;;;24.20;;
47912;SDS011;33676;51.006;17.180;2023-02-08T08:11:20;33.30;;;24.20;;
47912;SDS011;33676;51.006;17.180;2023-02-08T08:13:49;39.30;;;23.00;;
47912;SDS011;33676;51.006;17.180;2023-02-08T08:16:18;36.50;;;25.00;;
47912;SDS011;33676;51.006;17.180;2023-02-08T08:18:47;36.80;;;24.30;;
47912;SDS011;33676;51.006;17.180;2023-02-08T08:21:16;40.20;;;26.00;;
47912;SDS011;33676;51.006;17.180;2023-02-08T08:23:46;39.10;;;23.80;;
47912;SDS011;33676;51.006;17.180;2023-02-08T08:26:16;36.70;;;25.70;;
47912;SDS011;33676;51.006;17.180;2023-02-08T08:28:47;39.00;;;24.60;;
47912;SDS011;33676;51.006;17.180;2023-02-08T08:31:18;41.60;;;25.70;;
47912;SDS011;33676;51.006;17.180;2023-02-08T08:33:48;40.50;;;29.00;;
47912;SDS011;33676;51.006;17.180;2023-02-08T08:36:17;39.50;;;24.10;;
47912;SDS011;33676;51.006;17.180;2023-02-08T08:38:46;41.70;;;25.70;;
47912;SDS011;33676;51.006;17.180;2023-02-08T08:41:15;35.20;;;24.60;;
47912;SDS011;33676;51.006;17.180;2023-02-08T08:43:45;32.50;;;23.20;;
47912;SDS011;33676;51.006;17.180;2023-02-08T08:46:14;34.80;;;25.40;;
47912;SDS011;33676;51.006;17.180;2023-02-08T08:48:44;37.80;;;23.40;;
47912;SDS011;33676;51.006;17.180;2023-02-08T08:51:12;40.40;;;25.00;;
47912;SDS011;33676;51.006;17.180;2023-02-08T08:53:41;38.20;;;24.90;;
47912;SDS011;33676;51.006;17.180;2023-02-08T08:56:09;37.20;;;23.90;;
47912;SDS011;33676;51.006;17.180;2023-02-08T08:58:41;35.70;;;23.30;;
47912;SDS011;33676;51.006;17.180;2023-02-08T09:01:10;38.10;;;26.20;;
47912;SDS011;33676;51.006;17.180;2023-02-08T09:03:41;39.40;;;23.90;;
47912;SDS011;33676;51.006;17.180;2023-02-08T09:06:09;35.60;;;25.40;;
47912;SDS011;33676;51.006;17.180;2023-02-08T09:08:38;36.40;;;24.30;;
47912;SDS011;33676;51.006;17.180;2023-02-08T09:11:09;41.40;;;25.20;;
47912;SDS011;33676;51.006;17.180;2023-02-08T09:13:39;41.60;;;25.40;;
47912;SDS011;33676;51.006;17.180;2023-02-08T09:16:14;34.50;;;24.70;;
47912;SDS011;33676;51.006;17.180;2023-02-08T09:18:44;37.50;;;24.40;;
47912;SDS011;33676;51.006;17.180;2023-02-08T09:21:16;37.30;;;23.50;;
47912;SDS011;33676;51.006;17.180;2023-02-08T09:23:47;40.20;;;25.80;;
47912;SDS011;33676;51.006;17.180;2023-02-08T09:26:17;41.90;;;26.10;;
47912;SDS011;33676;51.006;17.180;2023-02-08T09:28:47;36.20;;;24.70;;
47912;SDS011;33676;51.006;17.180;2023-02-08T09:31:24;37.20;;;26.60;;
47912;SDS011;33676;51.006;17.180;2023-02-08T09:33:58;40.50;;;24.60;;
47912;SDS011;33676;51.006;17.180;2023-02-08T09:36:30;36.10;;;26.10;;
47912;SDS011;33676;51.006;17.180;2023-02-08T09:39:05;34.20;;;23.40;;
47912;SDS011;33676;51.006;17.180;2023-02-08T09:50:09;36.10;;;25.60;;
47912;SDS011;33676;51.006;17.180;2023-02-08T09:53:02;36.40;;;23.90;;
47912;SDS011;33676;51.006;17.180;2023-02-08T09:55:43;38.00;;;24.20;;
47912;SDS011;33676;51.006;17.180;2023-02-08T09:58:22;34.20;;;21.80;;
47912;SDS011;33676;51.006;17.180;2023-02-08T10:00:55;34.90;;;22.30;;
47912;SDS011;33676;51.006;17.180;2023-02-08T10:03:40;33.50;;;22.30;;
47912;SDS011;33676;51.006;17.180;2023-02-08T10:06:15;30.20;;;24.10;;
47912;SDS011;33676;51.006;17.180;2023-02-08T10:08:48;32.70;;;22.70;;
47912;SDS011;33676;51.006;17.180;2023-02-08T10:11:32;38.10;;;23.80;;
47912;SDS011;33676;51.006;17.180;2023-02-08T10:14:29;35.70;;;23.10;;
47912;SDS011;33676;51.006;17.180;2023-02-08T10:17:36;36.20;;;25.10;;
47912;SDS011;33676;51.006;17.180;2023-02-08T10:20:17;39.30;;;24.90;;
47912;SDS011;33676;51.006;17.180;2023-02-08T10:23:13;40.60;;;25.10;;
47912;SDS011;33676;51.006;17.180;2023-02-08T10:29:20;33.90;;;24.30;;
47912;SDS011;33676;51.006;17.180;2023-02-08T10:35:31;42.40;;;26.20;;
47912;SDS011;33676;51.006;17.180;2023-02-08T10:42:15;37.80;;;25.00;;
47912;SDS011;33676;51.006;17.180;2023-02-08T10:47:55;41.00;;;25.70;;
47912;SDS011;33676;51.006;17.180;2023-02-08T10:50:40;35.50;;;24.60;;
47912;SDS011;33676;51.006;17.180;2023-02-08T10:53:18;34.20;;;21.90;;
47912;SDS011;33676;51.006;17.180;2023-02-08T10:55:53;37.60;;;25.70;;
47912;SDS011;33676;51.006;17.180;2023-02-08T10:58:23;38.80;;;24.00;;
47912;SDS011;33676;51.006;17.180;2023-02-08T11:00:55;34.50;;;24.20;;
47912;SDS011;33676;51.006;17.180;2023-02-08T11:03:27;42.70;;;37.00;;
47912;SDS011;33676;51.006;17.180;2023-02-08T11:05:57;39.50;;;29.40;;
47912;SDS011;33676;51.006;17.180;2023-02-08T11:08:25;43.20;;;28.10;;
47912;SDS011;33676;51.006;17.180;2023-02-08T11:13:41;40.20;;;25.70;;
47912;SDS011;33676;51.006;17.180;2023-02-08T11:16:24;37.70;;;28.90;;
47912;SDS011;33676;51.006;17.180;2023-02-08T11:18:59;34.30;;;26.10;;
47912;SDS011;33676;51.006;17.180;2023-02-08T11:21:31;43.30;;;28.30;;
47912;SDS011;33676;51.006;17.180;2023-02-08T11:26:42;41.00;;;30.30;;
47912;SDS011;33676;51.006;17.180;2023-02-08T11:29:18;45.80;;;30.80;;
47912;SDS011;33676;51.006;17.180;2023-02-08T11:37:02;39.00;;;28.90;;
47912;SDS011;33676;51.006;17.180;2023-02-08T11:40:00;40.20;;;26.60;;
47912;SDS011;33676;51.006;17.180;2023-02-08T11:42:35;38.40;;;26.20;;
47912;SDS011;33676;51.006;17.180;2023-02-08T11:45:20;35.10;;;27.20;;
47912;SDS011;33676;51.006;17.180;2023-02-08T11:47:51;41.80;;;27.70;;
47912;SDS011;33676;51.006;17.180;2023-02-08T11:50:24;39.10;;;28.30;;
47912;SDS011;33676;51.006;17.180;2023-02-08T11:52:59;56.90;;;32.30;;
47912;SDS011;33676;51.006;17.180;2023-02-08T11:55:32;49.90;;;29.30;;
47912;SDS011;33676;51.006;17.180;2023-02-08T11:58:18;43.60;;;29.60;;
47912;SDS011;33676;51.006;17.180;2023-02-08T12:01:19;34.60;;;28.40;;
47912;SDS011;33676;51.006;17.180;2023-02-08T12:03:48;36.10;;;28.10;;
47912;SDS011;33676;51.006;17.180;2023-02-08T12:12:53;36.80;;;27.00;;
47912;SDS011;33676;51.006;17.180;2023-02-08T12:20:46;35.90;;;26.50;;
47912;SDS011;33676;51.006;17.180;2023-02-08T12:23:33;39.30;;;28.20;;
47912;SDS011;33676;51.006;17.180;2023-02-08T12:31:48;33.50;;;25.90;;
47912;SDS011;33676;51.006;17.180;2023-02-08T12:34:55;37.60;;;26.10;;
47912;SDS011;33676;51.006;17.180;2023-02-08T12:43:50;39.20;;;27.80;;
47912;SDS011;33676;51.006;17.180;2023-02-08T12:46:46;39.50;;;26.50;;
47912;SDS011;33676;51.006;17.180;2023-02-08T12:52:44;33.50;;;24.50;;
47912;SDS011;33676;51.006;17.180;2023-02-08T12:55:25;38.00;;;26.50;;
47912;SDS011;33676;51.006;17.180;2023-02-08T12:58:48;34.00;;;26.20;;
47912;SDS011;33676;51.006;17.180;2023-02-08T13:01:28;41.10;;;26.40;;
47912;SDS011;33676;51.006;17.180;2023-02-08T13:04:16;37.60;;;28.60;;
47912;SDS011;33676;51.006;17.180;2023-02-08T13:06:56;39.40;;;29.10;;
47912;SDS011;33676;51.006;17.180;2023-02-08T13:12:28;37.30;;;26.90;;
47912;SDS011;33676;51.006;17.180;2023-02-08T13:18:09;31.40;;;25.90;;
47912;SDS011;33676;51.006;17.180;2023-02-08T13:20:52;40.90;;;27.00;;
47912;SDS011;33676;51.006;17.180;2023-02-08T13:23:46;37.80;;;25.60;;
47912;SDS011;33676;51.006;17.180;2023-02-08T13:26:25;32.70;;;25.80;;
47912;SDS011;33676;51.006;17.180;2023-02-08T13:29:01;37.00;;;26.30;;
47912;SDS011;33676;51.006;17.180;2023-02-08T13:31:38;32.90;;;26.90;;
47912;SDS011;33676;51.006;17.180;2023-02-08T13:41:35;34.90;;;26.90;;
47912;SDS011;33676;51.006;17.180;2023-02-08T13:44:21;39.90;;;27.50;;
47912;SDS011;33676;51.006;17.180;2023-02-08T13:46:59;35.40;;;26.30;;
47912;SDS011;33676;51.006;17.180;2023-02-08T13:49:55;40.90;;;28.20;;
47912;SDS011;33676;51.006;17.180;2023-02-08T14:03:32;39.60;;;32.00;;
47912;SDS011;33676;51.006;17.180;2023-02-08T14:11:30;43.90;;;32.60;;
47912;SDS011;33676;51.006;17.180;2023-02-08T14:14:26;41.00;;;31.80;;
47912;SDS011;33676;51.006;17.180;2023-02-08T14:17:25;43.50;;;35.80;;
47912;SDS011;33676;51.006;17.180;2023-02-08T14:19:58;41.00;;;31.80;;
47912;SDS011;33676;51.006;17.180;2023-02-08T14:34:28;40.50;;;30.70;;
47912;SDS011;33676;51.006;17.180;2023-02-08T14:37:29;41.50;;;31.90;;
47912;SDS011;33676;51.006;17.180;2023-02-08T14:42:58;40.60;;;32.10;;
47912;SDS011;33676;51.006;17.180;2023-02-08T14:45:40;35.40;;;28.70;;
47912;SDS011;33676;51.006;17.180;2023-02-08T14:48:32;34.60;;;29.20;;
47912;SDS011;33676;51.006;17.180;2023-02-08T14:53:55;32.40;;;28.00;;
47912;SDS011;33676;51.006;17.180;2023-02-08T14:56:31;33.20;;;28.70;;
47912;SDS011;33676;51.006;17.180;2023-02-08T14:59:14;40.00;;;29.80;;
47912;SDS011;33676;51.006;17.180;2023-02-08T15:01:47;43.10;;;30.30;;
47912;SDS011;33676;51.006;17.180;2023-02-08T15:10:12;37.90;;;28.80;;
47912;SDS011;33676;51.006;17.180;2023-02-08T15:12:43;39.10;;;29.60;;
47912;SDS011;33676;51.006;17.180;2023-02-08T15:15:39;39.60;;;31.00;;
47912;SDS011;33676;51.006;17.180;2023-02-08T15:18:17;39.70;;;32.20;;
47912;SDS011;33676;51.006;17.180;2023-02-08T15:20:59;34.50;;;27.80;;
47912;SDS011;33676;51.006;17.180;2023-02-08T15:23:30;42.60;;;30.80;;
47912;SDS011;33676;51.006;17.180;2023-02-08T15:26:01;41.20;;;29.90;;
47912;SDS011;33676;51.006;17.180;2023-02-08T15:28:46;40.40;;;30.80;;
47912;SDS011;33676;51.006;17.180;2023-02-08T15:31:17;41.40;;;31.40;;
47912;SDS011;33676;51.006;17.180;2023-02-08T15:33:51;40.10;;;30.40;;
47912;SDS011;33676;51.006;17.180;2023-02-08T15:39:08;39.50;;;28.90;;
47912;SDS011;33676;51.006;17.180;2023-02-08T15:41:47;41.50;;;31.30;;
47912;SDS011;33676;51.006;17.180;2023-02-08T15:44:24;52.20;;;33.80;;
47912;SDS011;33676;51.006;17.180;2023-02-08T15:47:06;45.10;;;32.20;;
47912;SDS011;33676;51.006;17.180;2023-02-08T15:49:44;63.30;;;33.30;;
47912;SDS011;33676;51.006;17.180;2023-02-08T15:52:19;48.90;;;30.60;;
47912;SDS011;33676;51.006;17.180;2023-02-08T15:54:51;54.00;;;32.20;;
47912;SDS011;33676;51.006;17.180;2023-02-08T15:57:40;47.20;;;32.80;;
47912;SDS011;33676;51.006;17.180;2023-02-08T16:00:13;53.20;;;35.30;;
47912;SDS011;33676;51.006;17.180;2023-02-08T16:05:27;53.70;;;34.80;;
47912;SDS011;33676;51.006;17.180;2023-02-08T16:07:58;54.70;;;36.20;;
47912;SDS011;33676;51.006;17.180;2023-02-08T16:10:34;51.50;;;35.60;;
47912;SDS011;33676;51.006;17.180;2023-02-08T16:13:27;56.50;;;36.30;;
47912;SDS011;33676;51.006;17.180;2023-02-08T16:19:02;53.50;;;34.10;;
47912;SDS011;33676;51.006;17.180;2023-02-08T16:21:52;49.50;;;32.10;;
47912;SDS011;33676;51.006;17.180;2023-02-08T16:24:26;53.30;;;35.30;;
47912;SDS011;33676;51.006;17.180;2023-02-08T16:27:05;56.60;;;34.60;;
47912;SDS011;33676;51.006;17.180;2023-02-08T16:29:45;50.30;;;34.60;;
47912;SDS011;33676;51.006;17.180;2023-02-08T16:32:27;60.30;;;35.40;;
47912;SDS011;33676;51.006;17.180;2023-02-08T16:34:58;53.20;;;32.80;;
47912;SDS011;33676;51.006;17.180;2023-02-08T16:37:32;51.50;;;33.80;;
47912;SDS011;33676;51.006;17.180;2023-02-08T16:43:20;59.70;;;35.40;;
47912;SDS011;33676;51.006;17.180;2023-02-08T16:46:16;55.50;;;35.10;;
47912;SDS011;33676;51.006;17.180;2023-02-08T16:48:55;60.80;;;38.10;;
47912;SDS011;33676;51.006;17.180;2023-02-08T16:51:29;63.70;;;37.40;;
47912;SDS011;33676;51.006;17.180;2023-02-08T16:54:03;63.80;;;37.50;;
47912;SDS011;33676;51.006;17.180;2023-02-08T16:56:35;80.30;;;49.80;;
47912;SDS011;33676;51.006;17.180;2023-02-08T16:59:04;95.50;;;58.30;;
47912;SDS011;33676;51.006;17.180;2023-02-08T17:01:34;82.30;;;50.80;;
47912;SDS011;33676;51.006;17.180;2023-02-08T17:04:05;95.30;;;54.00;;
47912;SDS011;33676;51.006;17.180;2023-02-08T17:06:35;83.90;;;49.70;;
47912;SDS011;33676;51.006;17.180;2023-02-08T17:09:05;77.50;;;47.90;;
47912;SDS011;33676;51.006;17.180;2023-02-08T17:11:36;71.50;;;45.80;;
47912;SDS011;33676;51.006;17.180;2023-02-08T17:14:05;63.30;;;42.10;;
47912;SDS011;33676;51.006;17.180;2023-02-08T17:16:35;62.20;;;40.30;;
47912;SDS011;33676;51.006;17.180;2023-02-08T17:19:11;66.10;;;39.30;;
47912;SDS011;33676;51.006;17.180;2023-02-08T17:21:45;60.80;;;36.40;;
47912;SDS011;33676;51.006;17.180;2023-02-08T17:24:14;53.20;;;33.40;;